<?xml version='1.0' encoding='UTF-8'?><gpx version="1.1" creator="JPX - https://github.com/jenetics/jpx" xmlns="http://www.topografix.com/GPX/1/1"><trk><trkseg><trkpt lat="45.56809193991211" lon="11.076104602489133"><ele>727.0</ele><time>2026-04-25T12:10:31Z</time></trkpt><trkpt lat="45.568132370068696" lon="11.076021632009374"><ele>727.0</ele><time>2026-04-25T12:10:58Z</time></trkpt><trkpt lat="45.5681818976625" lon="11.076088269214718"><ele>727.0</ele><time>2026-04-25T12:11:03Z</time></trkpt><trkpt lat="45.56816414044417" lon="11.076210073582033"><ele>727.0</ele><time>2026-04-25T12:11:06Z</time></trkpt><trkpt lat="45.568118271209194" lon="11.076314325159219"><ele>727.0</ele><time>2026-04-25T12:11:09Z</time></trkpt><trkpt lat="45.56802536887079" lon="11.076295833288295"><ele>727.0</ele><time>2026-04-25T12:11:11Z</time></trkpt><trkpt lat="45.56796321388449" lon="11.076318265471976"><ele>727.0</ele><time>2026-04-25T12:11:14Z</time></trkpt><trkpt lat="45.56790900053754" lon="11.076389030577074"><ele>727.0</ele><time>2026-04-25T12:11:29Z</time></trkpt><trkpt lat="45.56783897566502" lon="11.076300535507604"><ele>727.0</ele><time>2026-04-25T12:11:31Z</time></trkpt><trkpt lat="45.567807977294535" lon="11.076174762133153"><ele>727.0</ele><time>2026-04-25T12:11:32Z</time></trkpt><trkpt lat="45.56771259157172" lon="11.07606280284478"><ele>727.0</ele><time>2026-04-25T12:11:33Z</time></trkpt><trkpt lat="45.56762018598129" lon="11.075957770930716"><ele>725.2</ele><time>2026-04-25T12:11:34Z</time></trkpt><trkpt lat="45.567532800964955" lon="11.07601689455981"><ele>723.4000000000001</ele><time>2026-04-25T12:11:36Z</time></trkpt><trkpt lat="45.567591016268246" lon="11.075892935444134"><ele>721.5999999999999</ele><time>2026-04-25T12:11:39Z</time></trkpt><trkpt lat="45.56766118320431" lon="11.075876692375536"><ele>719.8</ele><time>2026-04-25T12:11:40Z</time></trkpt><trkpt lat="45.5677554913457" lon="11.07587020616058"><ele>718.0</ele><time>2026-04-25T12:11:41Z</time></trkpt><trkpt lat="45.567846347387984" lon="11.0758517436475"><ele>720.25</ele><time>2026-04-25T12:11:42Z</time></trkpt><trkpt lat="45.56794823063633" lon="11.075825265569243"><ele>722.5</ele><time>2026-04-25T12:11:43Z</time></trkpt><trkpt lat="45.56804980193388" lon="11.075806342013605"><ele>724.75</ele><time>2026-04-25T12:11:44Z</time></trkpt><trkpt lat="45.56816711043815" lon="11.075805211976645"><ele>727.0</ele><time>2026-04-25T12:11:45Z</time></trkpt><trkpt lat="45.56828993906114" lon="11.075726353822283"><ele>727.6666666666667</ele><time>2026-04-25T12:11:47Z</time></trkpt><trkpt lat="45.56832227939045" lon="11.075627046802675"><ele>728.3333333333334</ele><time>2026-04-25T12:11:48Z</time></trkpt><trkpt lat="45.568356122396644" lon="11.07552354170305"><ele>729.0</ele><time>2026-04-25T12:11:49Z</time></trkpt><trkpt lat="45.56836841078028" lon="11.075400029502223"><ele>729.6666666666666</ele><time>2026-04-25T12:11:50Z</time></trkpt><trkpt lat="45.56835420230802" lon="11.075253584064704"><ele>730.3333333333333</ele><time>2026-04-25T12:11:51Z</time></trkpt><trkpt lat="45.56831875465853" lon="11.075127470133882"><ele>731.0</ele><time>2026-04-25T12:11:52Z</time></trkpt><trkpt lat="45.568278908588326" lon="11.074989576674716"><ele>733.1999999999999</ele><time>2026-04-25T12:11:53Z</time></trkpt><trkpt lat="45.56822493926463" lon="11.074864756184155"><ele>735.4</ele><time>2026-04-25T12:11:54Z</time></trkpt><trkpt lat="45.568165544163065" lon="11.074755372997078"><ele>737.6</ele><time>2026-04-25T12:11:55Z</time></trkpt><trkpt lat="45.56810335439507" lon="11.07462930624761"><ele>739.8</ele><time>2026-04-25T12:11:56Z</time></trkpt><trkpt lat="45.568032465084315" lon="11.074490622745085"><ele>742.0</ele><time>2026-04-25T12:11:57Z</time></trkpt><trkpt lat="45.56796257509655" lon="11.074350750433963"><ele>742.0</ele><time>2026-04-25T12:11:58Z</time></trkpt><trkpt lat="45.56789182783138" lon="11.074212093788615"><ele>742.0</ele><time>2026-04-25T12:11:59Z</time></trkpt><trkpt lat="45.567826467973156" lon="11.074070291149479"><ele>742.0</ele><time>2026-04-25T12:12:00Z</time></trkpt><trkpt lat="45.56778041608619" lon="11.073920172163298"><ele>742.0</ele><time>2026-04-25T12:12:01Z</time></trkpt><trkpt lat="45.567744406278386" lon="11.073769944474037"><ele>739.0</ele><time>2026-04-25T12:12:02Z</time></trkpt><trkpt lat="45.56771159770842" lon="11.073626139043771"><ele>736.0</ele><time>2026-04-25T12:12:03Z</time></trkpt><trkpt lat="45.56768474212842" lon="11.07350095343192"><ele>733.0</ele><time>2026-04-25T12:12:04Z</time></trkpt><trkpt lat="45.5676755260921" lon="11.073396722321363"><ele>730.0</ele><time>2026-04-25T12:12:05Z</time></trkpt><trkpt lat="45.567654209301296" lon="11.073244806107091"><ele>727.0</ele><time>2026-04-25T12:12:06Z</time></trkpt><trkpt lat="45.56766051623394" lon="11.073099879902399"><ele>726.6666666666667</ele><time>2026-04-25T12:12:07Z</time></trkpt><trkpt lat="45.56769052769652" lon="11.072969615216477"><ele>726.3333333333334</ele><time>2026-04-25T12:12:08Z</time></trkpt><trkpt lat="45.56773084792159" lon="11.072865554470425"><ele>726.0</ele><time>2026-04-25T12:12:09Z</time></trkpt><trkpt lat="45.567805990747694" lon="11.072849584938835"><ele>725.6666666666666</ele><time>2026-04-25T12:12:10Z</time></trkpt><trkpt lat="45.5678737790902" lon="11.072812516907929"><ele>725.3333333333333</ele><time>2026-04-25T12:12:11Z</time></trkpt><trkpt lat="45.56794649107853" lon="11.072778362888268"><ele>725.0</ele><time>2026-04-25T12:12:12Z</time></trkpt><trkpt lat="45.56806689496453" lon="11.072716814865572"><ele>726.5</ele><time>2026-04-25T12:12:13Z</time></trkpt><trkpt lat="45.568195504478034" lon="11.072689859254135"><ele>728.0</ele><time>2026-04-25T12:12:14Z</time></trkpt><trkpt lat="45.56833077321665" lon="11.072656234673747"><ele>729.5</ele><time>2026-04-25T12:12:15Z</time></trkpt><trkpt lat="45.568471382878144" lon="11.07265265600623"><ele>731.0</ele><time>2026-04-25T12:12:16Z</time></trkpt><trkpt lat="45.5686149286649" lon="11.07262760940266"><ele>733.25</ele><time>2026-04-25T12:12:17Z</time></trkpt><trkpt lat="45.56875592709382" lon="11.072609150900552"><ele>735.5</ele><time>2026-04-25T12:12:18Z</time></trkpt><trkpt lat="45.568888320987476" lon="11.07256705366551"><ele>737.75</ele><time>2026-04-25T12:12:19Z</time></trkpt><trkpt lat="45.56901442280769" lon="11.072539369197582"><ele>740.0</ele><time>2026-04-25T12:12:20Z</time></trkpt><trkpt lat="45.569133223382785" lon="11.072519581257643"><ele>740.0</ele><time>2026-04-25T12:12:21Z</time></trkpt><trkpt lat="45.56924441147783" lon="11.072474754277723"><ele>740.0</ele><time>2026-04-25T12:12:22Z</time></trkpt><trkpt lat="45.56935676570513" lon="11.072434735554257"><ele>740.0</ele><time>2026-04-25T12:12:23Z</time></trkpt><trkpt lat="45.569464542100505" lon="11.072399774471991"><ele>740.0</ele><time>2026-04-25T12:12:24Z</time></trkpt><trkpt lat="45.56956504034669" lon="11.0723539266497"><ele>740.0</ele><time>2026-04-25T12:12:25Z</time></trkpt><trkpt lat="45.569628470530226" lon="11.072319842301955"><ele>734.6666666666666</ele><time>2026-04-25T12:12:27Z</time></trkpt><trkpt lat="45.56984323752899" lon="11.072145113078994"><ele>729.3333333333334</ele><time>2026-04-25T12:12:28Z</time></trkpt><trkpt lat="45.569979760280624" lon="11.072084751595556"><ele>724.0</ele><time>2026-04-25T12:12:29Z</time></trkpt><trkpt lat="45.570124303411205" lon="11.072046648069259"><ele>724.0</ele><time>2026-04-25T12:12:30Z</time></trkpt><trkpt lat="45.57027696442194" lon="11.07201203538505"><ele>724.0</ele><time>2026-04-25T12:12:31Z</time></trkpt><trkpt lat="45.57043400458143" lon="11.07199388200969"><ele>724.0</ele><time>2026-04-25T12:12:32Z</time></trkpt><trkpt lat="45.570578392482915" lon="11.07196890061814"><ele>726.2</ele><time>2026-04-25T12:12:33Z</time></trkpt><trkpt lat="45.570708191624135" lon="11.07193283132682"><ele>728.4000000000001</ele><time>2026-04-25T12:12:34Z</time></trkpt><trkpt lat="45.5708108267887" lon="11.071889266495504"><ele>730.6</ele><time>2026-04-25T12:12:35Z</time></trkpt><trkpt lat="45.57092187928557" lon="11.071835349846321"><ele>732.8</ele><time>2026-04-25T12:12:36Z</time></trkpt><trkpt lat="45.57101290727105" lon="11.071811434602017"><ele>735.0</ele><time>2026-04-25T12:12:37Z</time></trkpt><trkpt lat="45.571094839164374" lon="11.071765559518433"><ele>735.0</ele><time>2026-04-25T12:12:38Z</time></trkpt><trkpt lat="45.571157216473374" lon="11.0717000792356"><ele>735.0</ele><time>2026-04-25T12:12:39Z</time></trkpt><trkpt lat="45.571210560337576" lon="11.071597967393174"><ele>735.0</ele><time>2026-04-25T12:12:40Z</time></trkpt><trkpt lat="45.571282512919105" lon="11.071496954014581"><ele>735.0</ele><time>2026-04-25T12:12:41Z</time></trkpt><trkpt lat="45.57135580256491" lon="11.071396682553408"><ele>735.0</ele><time>2026-04-25T12:12:42Z</time></trkpt><trkpt lat="45.57143446149186" lon="11.071305590881256"><ele>735.75</ele><time>2026-04-25T12:12:43Z</time></trkpt><trkpt lat="45.571518136493154" lon="11.071213632419692"><ele>736.5</ele><time>2026-04-25T12:12:44Z</time></trkpt><trkpt lat="45.571611804544744" lon="11.071124473082154"><ele>737.25</ele><time>2026-04-25T12:12:45Z</time></trkpt><trkpt lat="45.57171139910362" lon="11.071030847363135"><ele>738.0</ele><time>2026-04-25T12:12:46Z</time></trkpt><trkpt lat="45.57180799516706" lon="11.070948916510146"><ele>738.0</ele><time>2026-04-25T12:12:47Z</time></trkpt><trkpt lat="45.571905159814314" lon="11.070897443985773"><ele>738.0</ele><time>2026-04-25T12:12:48Z</time></trkpt><trkpt lat="45.5720003410002" lon="11.070860070303587"><ele>738.0</ele><time>2026-04-25T12:12:49Z</time></trkpt><trkpt lat="45.57210347605787" lon="11.07086842488304"><ele>738.0</ele><time>2026-04-25T12:12:50Z</time></trkpt><trkpt lat="45.57222229521183" lon="11.07085786977504"><ele>738.0</ele><time>2026-04-25T12:12:51Z</time></trkpt><trkpt lat="45.572353531798434" lon="11.070860068879982"><ele>738.25</ele><time>2026-04-25T12:12:52Z</time></trkpt><trkpt lat="45.572494018923535" lon="11.07089849920965"><ele>738.5</ele><time>2026-04-25T12:12:53Z</time></trkpt><trkpt lat="45.57263385870972" lon="11.070954559225461"><ele>738.75</ele><time>2026-04-25T12:12:54Z</time></trkpt><trkpt lat="45.572774205623745" lon="11.070982424915671"><ele>739.0</ele><time>2026-04-25T12:12:55Z</time></trkpt><trkpt lat="45.57290866002215" lon="11.070990259476643"><ele>738.25</ele><time>2026-04-25T12:12:56Z</time></trkpt><trkpt lat="45.573038610915766" lon="11.070976311537285"><ele>737.5</ele><time>2026-04-25T12:12:57Z</time></trkpt><trkpt lat="45.57316534869039" lon="11.070958617423297"><ele>736.75</ele><time>2026-04-25T12:12:58Z</time></trkpt><trkpt lat="45.57328770027275" lon="11.070946889917183"><ele>736.0</ele><time>2026-04-25T12:12:59Z</time></trkpt><trkpt lat="45.57339804144959" lon="11.070911324479917"><ele>736.0</ele><time>2026-04-25T12:13:00Z</time></trkpt><trkpt lat="45.57349449675801" lon="11.070832418895012"><ele>736.0</ele><time>2026-04-25T12:13:01Z</time></trkpt><trkpt lat="45.57356966243857" lon="11.070711108459445"><ele>736.0</ele><time>2026-04-25T12:13:02Z</time></trkpt><trkpt lat="45.57363169328165" lon="11.07056220834502"><ele>736.0</ele><time>2026-04-25T12:13:03Z</time></trkpt><trkpt lat="45.57369245642538" lon="11.070433760677352"><ele>734.0</ele><time>2026-04-25T12:13:04Z</time></trkpt><trkpt lat="45.5737682318232" lon="11.07033662305321"><ele>732.0</ele><time>2026-04-25T12:13:05Z</time></trkpt><trkpt lat="45.57386469453786" lon="11.070317648973194"><ele>730.0</ele><time>2026-04-25T12:13:06Z</time></trkpt><trkpt lat="45.57396006642388" lon="11.070293504526113"><ele>728.0</ele><time>2026-04-25T12:13:07Z</time></trkpt><trkpt lat="45.5740595867137" lon="11.070303078313572"><ele>726.0</ele><time>2026-04-25T12:13:08Z</time></trkpt><trkpt lat="45.57413505057096" lon="11.070300556248558"><ele>726.0</ele><time>2026-04-25T12:13:09Z</time></trkpt><trkpt lat="45.574234793351195" lon="11.070238212518198"><ele>726.0</ele><time>2026-04-25T12:13:11Z</time></trkpt><trkpt lat="45.57422378797477" lon="11.07003579545309"><ele>726.0</ele><time>2026-04-25T12:13:13Z</time></trkpt><trkpt lat="45.57420938692948" lon="11.06991762917274"><ele>726.0</ele><time>2026-04-25T12:13:14Z</time></trkpt><trkpt lat="45.574176981317365" lon="11.069808179807831"><ele>726.0</ele><time>2026-04-25T12:13:15Z</time></trkpt><trkpt lat="45.57415076609259" lon="11.069723352049577"><ele>726.1999999999999</ele><time>2026-04-25T12:13:16Z</time></trkpt><trkpt lat="45.57411606705351" lon="11.069574915842693"><ele>726.4</ele><time>2026-04-25T12:13:18Z</time></trkpt><trkpt lat="45.57418491994277" lon="11.06941423087517"><ele>726.6</ele><time>2026-04-25T12:13:20Z</time></trkpt><trkpt lat="45.57422725503971" lon="11.069338981283888"><ele>726.8</ele><time>2026-04-25T12:13:21Z</time></trkpt><trkpt lat="45.5742877854745" lon="11.069214770705578"><ele>727.0</ele><time>2026-04-25T12:13:23Z</time></trkpt><trkpt lat="45.5740549441735" lon="11.068946756383408"><ele>728.6</ele><time>2026-04-25T12:13:26Z</time></trkpt><trkpt lat="45.57400484037459" lon="11.06885797229336"><ele>730.2</ele><time>2026-04-25T12:13:27Z</time></trkpt><trkpt lat="45.57397826932616" lon="11.06874146357404"><ele>731.8</ele><time>2026-04-25T12:13:28Z</time></trkpt><trkpt lat="45.573958562367125" lon="11.068588336721044"><ele>733.4</ele><time>2026-04-25T12:13:29Z</time></trkpt><trkpt lat="45.57393146468682" lon="11.068436841407433"><ele>735.0</ele><time>2026-04-25T12:13:30Z</time></trkpt><trkpt lat="45.573907114856596" lon="11.0682725220868"><ele>736.4</ele><time>2026-04-25T12:13:31Z</time></trkpt><trkpt lat="45.57388156799846" lon="11.06811510149688"><ele>737.8</ele><time>2026-04-25T12:13:32Z</time></trkpt><trkpt lat="45.573846462137304" lon="11.067970943432824"><ele>739.2</ele><time>2026-04-25T12:13:33Z</time></trkpt><trkpt lat="45.57380764779615" lon="11.067822072520567"><ele>740.6</ele><time>2026-04-25T12:13:34Z</time></trkpt><trkpt lat="45.5737697826937" lon="11.067683604181301"><ele>742.0</ele><time>2026-04-25T12:13:35Z</time></trkpt><trkpt lat="45.57374243249986" lon="11.067555936281675"><ele>742.6666666666667</ele><time>2026-04-25T12:13:36Z</time></trkpt><trkpt lat="45.57373412528374" lon="11.06742985993654"><ele>743.3333333333334</ele><time>2026-04-25T12:13:37Z</time></trkpt><trkpt lat="45.573729994605976" lon="11.06731099660146"><ele>744.0</ele><time>2026-04-25T12:13:38Z</time></trkpt><trkpt lat="45.57373900310317" lon="11.06718497293325"><ele>744.6666666666666</ele><time>2026-04-25T12:13:39Z</time></trkpt><trkpt lat="45.57374627640125" lon="11.067057674768739"><ele>745.3333333333333</ele><time>2026-04-25T12:13:40Z</time></trkpt><trkpt lat="45.5737526496484" lon="11.066933247778493"><ele>746.0</ele><time>2026-04-25T12:13:41Z</time></trkpt><trkpt lat="45.573762201687735" lon="11.066810655348718"><ele>746.0</ele><time>2026-04-25T12:13:42Z</time></trkpt><trkpt lat="45.57377956579786" lon="11.066682570115074"><ele>746.0</ele><time>2026-04-25T12:13:43Z</time></trkpt><trkpt lat="45.57380965820384" lon="11.066554860360254"><ele>746.0</ele><time>2026-04-25T12:13:44Z</time></trkpt><trkpt lat="45.573844432922776" lon="11.06642388275896"><ele>746.0</ele><time>2026-04-25T12:13:45Z</time></trkpt><trkpt lat="45.57387809951308" lon="11.066306325860054"><ele>746.0</ele><time>2026-04-25T12:13:46Z</time></trkpt><trkpt lat="45.57389299283692" lon="11.066185759179639"><ele>745.5</ele><time>2026-04-25T12:13:47Z</time></trkpt><trkpt lat="45.573899045518985" lon="11.066058295636363"><ele>745.0</ele><time>2026-04-25T12:13:48Z</time></trkpt><trkpt lat="45.57390107766612" lon="11.065934990956285"><ele>744.5</ele><time>2026-04-25T12:13:49Z</time></trkpt><trkpt lat="45.57390147228167" lon="11.06581813976902"><ele>744.0</ele><time>2026-04-25T12:13:50Z</time></trkpt><trkpt lat="45.57391066144748" lon="11.065712419456665"><ele>743.5</ele><time>2026-04-25T12:13:51Z</time></trkpt><trkpt lat="45.57392294218527" lon="11.065623002714608"><ele>743.0</ele><time>2026-04-25T12:13:52Z</time></trkpt><trkpt lat="45.57393125370756" lon="11.065531622246226"><ele>742.8333333333333</ele><time>2026-04-25T12:13:53Z</time></trkpt><trkpt lat="45.57396572490789" lon="11.065396491520206"><ele>742.6666666666666</ele><time>2026-04-25T12:13:55Z</time></trkpt><trkpt lat="45.57402726905473" lon="11.065328241697555"><ele>742.5</ele><time>2026-04-25T12:13:57Z</time></trkpt><trkpt lat="45.574105656928744" lon="11.065351130062977"><ele>742.3333333333334</ele><time>2026-04-25T12:13:59Z</time></trkpt><trkpt lat="45.574173513404766" lon="11.06537947833292"><ele>742.1666666666667</ele><time>2026-04-25T12:14:01Z</time></trkpt><trkpt lat="45.57423085075727" lon="11.065440290934019"><ele>742.0</ele><time>2026-04-25T12:14:07Z</time></trkpt><trkpt lat="45.574277453180905" lon="11.065526884671016"><ele>742.0</ele><time>2026-04-25T12:14:09Z</time></trkpt><trkpt lat="45.57436234638585" lon="11.065555981291169"><ele>742.0</ele><time>2026-04-25T12:14:12Z</time></trkpt><trkpt lat="45.57442283510146" lon="11.065592042310469"><ele>742.0</ele><time>2026-04-25T12:14:15Z</time></trkpt><trkpt lat="45.57450243199079" lon="11.065591377779711"><ele>742.0</ele><time>2026-04-25T12:14:16Z</time></trkpt><trkpt lat="45.5745684776471" lon="11.065586605865391"><ele>742.0</ele><time>2026-04-25T12:14:17Z</time></trkpt><trkpt lat="45.574632401714545" lon="11.065598818577334"><ele>742.0</ele><time>2026-04-25T12:14:18Z</time></trkpt><trkpt lat="45.57469613769491" lon="11.065609808384373"><ele>742.0</ele><time>2026-04-25T12:14:19Z</time></trkpt><trkpt lat="45.57480652573401" lon="11.065666487971317"><ele>737.0</ele><time>2026-04-25T12:14:21Z</time></trkpt><trkpt lat="45.574878040917284" lon="11.065698860073253"><ele>732.0</ele><time>2026-04-25T12:14:22Z</time></trkpt><trkpt lat="45.57498694020707" lon="11.065718137228265"><ele>727.0</ele><time>2026-04-25T12:14:24Z</time></trkpt><trkpt lat="45.57505716868061" lon="11.065632329274814"><ele>722.0</ele><time>2026-04-25T12:14:27Z</time></trkpt><trkpt lat="45.575243969947344" lon="11.065539574916391"><ele>722.0</ele><time>2026-04-25T12:14:29Z</time></trkpt><trkpt lat="45.575288376290416" lon="11.065458846691048"><ele>722.0</ele><time>2026-04-25T12:14:30Z</time></trkpt><trkpt lat="45.57535687886424" lon="11.065369548572193"><ele>722.0</ele><time>2026-04-25T12:14:32Z</time></trkpt><trkpt lat="45.575418771702445" lon="11.065322429278206"><ele>722.0</ele><time>2026-04-25T12:14:33Z</time></trkpt><trkpt lat="45.57547264109295" lon="11.065250110689854"><ele>722.0</ele><time>2026-04-25T12:14:34Z</time></trkpt><trkpt lat="45.57551880799414" lon="11.065165016316989"><ele>722.0</ele><time>2026-04-25T12:14:35Z</time></trkpt><trkpt lat="45.575567684208835" lon="11.065090312283855"><ele>721.5714285714286</ele><time>2026-04-25T12:14:36Z</time></trkpt><trkpt lat="45.57561913895009" lon="11.065037841549774"><ele>721.1428571428571</ele><time>2026-04-25T12:14:37Z</time></trkpt><trkpt lat="45.575688360792164" lon="11.064960187328126"><ele>720.7142857142857</ele><time>2026-04-25T12:14:39Z</time></trkpt><trkpt lat="45.57574221288076" lon="11.064911830047697"><ele>720.2857142857142</ele><time>2026-04-25T12:14:41Z</time></trkpt><trkpt lat="45.57578283916474" lon="11.064836886300728"><ele>719.8571428571429</ele><time>2026-04-25T12:14:47Z</time></trkpt><trkpt lat="45.57584573843735" lon="11.064883143890627"><ele>719.4285714285713</ele><time>2026-04-25T12:14:58Z</time></trkpt><trkpt lat="45.575907566360954" lon="11.064865294671074"><ele>719.0</ele><time>2026-04-25T12:15:01Z</time></trkpt><trkpt lat="45.575982370968745" lon="11.064843600166586"><ele>719.0</ele><time>2026-04-25T12:15:04Z</time></trkpt><trkpt lat="45.57604754283079" lon="11.064810379672165"><ele>719.0</ele><time>2026-04-25T12:15:07Z</time></trkpt><trkpt lat="45.57614426802341" lon="11.064826328070957"><ele>719.0</ele><time>2026-04-25T12:15:10Z</time></trkpt><trkpt lat="45.57622682107806" lon="11.06473596878776"><ele>719.0</ele><time>2026-04-25T12:15:12Z</time></trkpt><trkpt lat="45.57627118334766" lon="11.06464714174682"><ele>719.0</ele><time>2026-04-25T12:15:14Z</time></trkpt><trkpt lat="45.5763068248871" lon="11.064556843348313"><ele>719.0</ele><time>2026-04-25T12:15:16Z</time></trkpt><trkpt lat="45.57632949327938" lon="11.064433037527534"><ele>718.9999999999999</ele><time>2026-04-25T12:15:19Z</time></trkpt><trkpt lat="45.57629886990307" lon="11.064343723409168"><ele>719.0</ele><time>2026-04-25T12:15:21Z</time></trkpt><trkpt lat="45.57624644344614" lon="11.064285518496783"><ele>719.0</ele><time>2026-04-25T12:15:24Z</time></trkpt><trkpt lat="45.576183547140225" lon="11.064247961623396"><ele>719.0</ele><time>2026-04-25T12:15:30Z</time></trkpt><trkpt lat="45.57615065135313" lon="11.06413377760521"><ele>719.0</ele><time>2026-04-25T12:15:37Z</time></trkpt><trkpt lat="45.57611998565721" lon="11.064050337883913"><ele>718.9999999999999</ele><time>2026-04-25T12:15:40Z</time></trkpt><trkpt lat="45.57611436381864" lon="11.06394175349391"><ele>719.0</ele><time>2026-04-25T12:15:45Z</time></trkpt><trkpt lat="45.57610496746272" lon="11.063838257847728"><ele>718.5</ele><time>2026-04-25T12:15:49Z</time></trkpt><trkpt lat="45.57605654296389" lon="11.06374727131312"><ele>718.0</ele><time>2026-04-25T12:15:51Z</time></trkpt><trkpt lat="45.576045467680665" lon="11.063658078863506"><ele>717.5</ele><time>2026-04-25T12:15:53Z</time></trkpt><trkpt lat="45.57604756691328" lon="11.063550389630889"><ele>717.0</ele><time>2026-04-25T12:15:55Z</time></trkpt><trkpt lat="45.576024444938675" lon="11.063444094704694"><ele>716.5</ele><time>2026-04-25T12:15:57Z</time></trkpt><trkpt lat="45.57600506473178" lon="11.063319528230656"><ele>716.0</ele><time>2026-04-25T12:15:59Z</time></trkpt><trkpt lat="45.575982981434656" lon="11.063157379374061"><ele>715.3333333333333</ele><time>2026-04-25T12:16:01Z</time></trkpt><trkpt lat="45.57597131550399" lon="11.063066466184923"><ele>714.6666666666666</ele><time>2026-04-25T12:16:02Z</time></trkpt><trkpt lat="45.57595122048349" lon="11.0629281320453"><ele>714.0</ele><time>2026-04-25T12:16:04Z</time></trkpt><trkpt lat="45.575933163679125" lon="11.062782993529755"><ele>713.3333333333334</ele><time>2026-04-25T12:16:06Z</time></trkpt><trkpt lat="45.575932973102525" lon="11.062659160074169"><ele>712.6666666666667</ele><time>2026-04-25T12:16:08Z</time></trkpt><trkpt lat="45.57593872758847" lon="11.062536033566083"><ele>712.0</ele><time>2026-04-25T12:16:10Z</time></trkpt><trkpt lat="45.57591866009412" lon="11.0623933924395"><ele>710.4000000000001</ele><time>2026-04-25T12:16:12Z</time></trkpt><trkpt lat="45.57592946161812" lon="11.062269770417402"><ele>708.8000000000001</ele><time>2026-04-25T12:16:14Z</time></trkpt><trkpt lat="45.57599426933198" lon="11.062175035475477"><ele>707.2</ele><time>2026-04-25T12:16:16Z</time></trkpt><trkpt lat="45.57603178123758" lon="11.06207964073518"><ele>705.6</ele><time>2026-04-25T12:16:18Z</time></trkpt><trkpt lat="45.57611659441384" lon="11.061982746230875"><ele>704.0</ele><time>2026-04-25T12:16:21Z</time></trkpt><trkpt lat="45.576199039876464" lon="11.06185998073545"><ele>703.0</ele><time>2026-04-25T12:16:23Z</time></trkpt><trkpt lat="45.57629686898155" lon="11.061747334958321"><ele>702.0</ele><time>2026-04-25T12:16:25Z</time></trkpt><trkpt lat="45.57635901197874" lon="11.061667330716569"><ele>701.0</ele><time>2026-04-25T12:16:27Z</time></trkpt><trkpt lat="45.576423161304774" lon="11.06158391218432"><ele>700.0</ele><time>2026-04-25T12:16:29Z</time></trkpt><trkpt lat="45.57647454437005" lon="11.061522253038856"><ele>699.0</ele><time>2026-04-25T12:16:30Z</time></trkpt><trkpt lat="45.57654448517812" lon="11.061477976115993"><ele>698.0</ele><time>2026-04-25T12:16:31Z</time></trkpt><trkpt lat="45.5766631836425" lon="11.061486138911393"><ele>698.0</ele><time>2026-04-25T12:16:33Z</time></trkpt><trkpt lat="45.576780907787786" lon="11.061482585646894"><ele>698.0</ele><time>2026-04-25T12:16:35Z</time></trkpt><trkpt lat="45.5768885307986" lon="11.061477463171231"><ele>698.0</ele><time>2026-04-25T12:16:37Z</time></trkpt><trkpt lat="45.57696832447388" lon="11.06147990961516"><ele>698.0</ele><time>2026-04-25T12:16:38Z</time></trkpt><trkpt lat="45.57703638118147" lon="11.061479554186459"><ele>698.0</ele><time>2026-04-25T12:16:39Z</time></trkpt><trkpt lat="45.57712022878864" lon="11.061496116829865"><ele>697.2</ele><time>2026-04-25T12:16:41Z</time></trkpt><trkpt lat="45.57718536801031" lon="11.061545528393339"><ele>696.4</ele><time>2026-04-25T12:16:43Z</time></trkpt><trkpt lat="45.57724309067645" lon="11.061603488437191"><ele>695.6</ele><time>2026-04-25T12:16:44Z</time></trkpt><trkpt lat="45.577338428697594" lon="11.061702230725425"><ele>694.8000000000001</ele><time>2026-04-25T12:16:46Z</time></trkpt><trkpt lat="45.57744393558785" lon="11.061800998312993"><ele>694.0</ele><time>2026-04-25T12:16:48Z</time></trkpt><trkpt lat="45.577552503304226" lon="11.061901910280104"><ele>698.0</ele><time>2026-04-25T12:16:50Z</time></trkpt><trkpt lat="45.5776395539349" lon="11.061953503643233"><ele>702.0</ele><time>2026-04-25T12:16:52Z</time></trkpt><trkpt lat="45.577700471443336" lon="11.061994739813768"><ele>706.0</ele><time>2026-04-25T12:16:53Z</time></trkpt><trkpt lat="45.57780372035131" lon="11.06207805495339"><ele>710.0</ele><time>2026-04-25T12:16:55Z</time></trkpt><trkpt lat="45.57786046774923" lon="11.062118271502742"><ele>714.0</ele><time>2026-04-25T12:16:56Z</time></trkpt><trkpt lat="45.578015627485314" lon="11.061945270880411"><ele>714.0</ele><time>2026-04-25T12:16:59Z</time></trkpt><trkpt lat="45.57809188725268" lon="11.061869001807619"><ele>714.0</ele><time>2026-04-25T12:17:00Z</time></trkpt><trkpt lat="45.578155194616215" lon="11.061822798382623"><ele>714.0</ele><time>2026-04-25T12:17:02Z</time></trkpt><trkpt lat="45.57828033464237" lon="11.061734573575407"><ele>714.0</ele><time>2026-04-25T12:17:04Z</time></trkpt><trkpt lat="45.57834210657164" lon="11.06168667309321"><ele>714.0</ele><time>2026-04-25T12:17:06Z</time></trkpt><trkpt lat="45.5783884915369" lon="11.06161249468525"><ele>714.0</ele><time>2026-04-25T12:17:08Z</time></trkpt><trkpt lat="45.57845083283098" lon="11.061558635907312"><ele>710.4000000000001</ele><time>2026-04-25T12:17:10Z</time></trkpt><trkpt lat="45.57854739615823" lon="11.061546227445962"><ele>706.8</ele><time>2026-04-25T12:17:12Z</time></trkpt><trkpt lat="45.5786586232144" lon="11.061542310463464"><ele>703.2</ele><time>2026-04-25T12:17:14Z</time></trkpt><trkpt lat="45.57875268183272" lon="11.061518333644555"><ele>699.5999999999999</ele><time>2026-04-25T12:17:16Z</time></trkpt><trkpt lat="45.57883427388893" lon="11.061478610834854"><ele>696.0</ele><time>2026-04-25T12:17:18Z</time></trkpt><trkpt lat="45.578922658035" lon="11.061479851179977"><ele>696.0</ele><time>2026-04-25T12:17:20Z</time></trkpt><trkpt lat="45.579018261770365" lon="11.061542222407898"><ele>696.0</ele><time>2026-04-25T12:17:22Z</time></trkpt><trkpt lat="45.579082095410456" lon="11.06160976009681"><ele>696.0</ele><time>2026-04-25T12:17:24Z</time></trkpt><trkpt lat="45.57916575172687" lon="11.061661190782216"><ele>696.0</ele><time>2026-04-25T12:17:45Z</time></trkpt><trkpt lat="45.57924120894479" lon="11.061665358282523"><ele>696.0</ele><time>2026-04-25T12:17:49Z</time></trkpt><trkpt lat="45.57934185869774" lon="11.061668181242956"><ele>697.8</ele><time>2026-04-25T12:17:52Z</time></trkpt><trkpt lat="45.57943029801402" lon="11.061721725564796"><ele>699.5999999999999</ele><time>2026-04-25T12:17:54Z</time></trkpt><trkpt lat="45.57954404088307" lon="11.061772340762989"><ele>701.4</ele><time>2026-04-25T12:17:56Z</time></trkpt><trkpt lat="45.57962029865241" lon="11.061789219477271"><ele>703.2</ele><time>2026-04-25T12:17:57Z</time></trkpt><trkpt lat="45.57972427653267" lon="11.061803755782613"><ele>705.0</ele><time>2026-04-25T12:17:59Z</time></trkpt><trkpt lat="45.57983939232304" lon="11.061826295195742"><ele>705.0</ele><time>2026-04-25T12:18:01Z</time></trkpt><trkpt lat="45.579905703626565" lon="11.061857220650753"><ele>705.0</ele><time>2026-04-25T12:18:03Z</time></trkpt><trkpt lat="45.579993882837364" lon="11.06188571240227"><ele>705.0</ele><time>2026-04-25T12:18:05Z</time></trkpt><trkpt lat="45.580096205816254" lon="11.061898994747928"><ele>705.0</ele><time>2026-04-25T12:18:07Z</time></trkpt><trkpt lat="45.58017860227117" lon="11.06192420304394"><ele>705.0</ele><time>2026-04-25T12:18:09Z</time></trkpt><trkpt lat="45.580234663337954" lon="11.061807178523583"><ele>705.0</ele><time>2026-04-25T12:18:12Z</time></trkpt><trkpt lat="45.58019128006829" lon="11.061662245269071"><ele>701.4</ele><time>2026-04-25T12:18:14Z</time></trkpt><trkpt lat="45.580146658165326" lon="11.061527797914907"><ele>697.8</ele><time>2026-04-25T12:18:16Z</time></trkpt><trkpt lat="45.58012075604868" lon="11.061411518777586"><ele>694.2</ele><time>2026-04-25T12:18:18Z</time></trkpt><trkpt lat="45.58010629755086" lon="11.061255322937173"><ele>690.6</ele><time>2026-04-25T12:18:20Z</time></trkpt><trkpt lat="45.58001108998382" lon="11.061116555176383"><ele>687.0</ele><time>2026-04-25T12:18:22Z</time></trkpt><trkpt lat="45.579949076287136" lon="11.060967376763081"><ele>687.0</ele><time>2026-04-25T12:18:24Z</time></trkpt><trkpt lat="45.57990437204639" lon="11.060829648709824"><ele>687.0</ele><time>2026-04-25T12:18:26Z</time></trkpt><trkpt lat="45.57989450767174" lon="11.060738573545795"><ele>687.0</ele><time>2026-04-25T12:18:27Z</time></trkpt><trkpt lat="45.57985983119361" lon="11.060650339597268"><ele>687.0</ele><time>2026-04-25T12:18:28Z</time></trkpt><trkpt lat="45.57980946923978" lon="11.060572377871377"><ele>687.0</ele><time>2026-04-25T12:18:30Z</time></trkpt><trkpt lat="45.579770726487716" lon="11.060466709907976"><ele>687.0</ele><time>2026-04-25T12:18:33Z</time></trkpt><trkpt lat="45.579750729563145" lon="11.060337446039421"><ele>682.6</ele><time>2026-04-25T12:18:36Z</time></trkpt><trkpt lat="45.57973708879857" lon="11.060217566863647"><ele>678.2</ele><time>2026-04-25T12:18:38Z</time></trkpt><trkpt lat="45.57968287256651" lon="11.06007118321817"><ele>673.8</ele><time>2026-04-25T12:18:40Z</time></trkpt><trkpt lat="45.57962277074522" lon="11.05999045503279"><ele>669.4</ele><time>2026-04-25T12:18:41Z</time></trkpt><trkpt lat="45.579577083025825" lon="11.059922008099509"><ele>665.0</ele><time>2026-04-25T12:18:42Z</time></trkpt><trkpt lat="45.57949796171202" lon="11.059833839273447"><ele>665.0</ele><time>2026-04-25T12:18:44Z</time></trkpt><trkpt lat="45.57943013146155" lon="11.059776192511826"><ele>665.0</ele><time>2026-04-25T12:18:46Z</time></trkpt><trkpt lat="45.57938487576454" lon="11.059661225348341"><ele>665.0</ele><time>2026-04-25T12:18:49Z</time></trkpt><trkpt lat="45.579359421511846" lon="11.059570778538035"><ele>665.0</ele><time>2026-04-25T12:18:51Z</time></trkpt><trkpt lat="45.57933888318202" lon="11.059474247801814"><ele>665.0</ele><time>2026-04-25T12:18:54Z</time></trkpt><trkpt lat="45.57935189316658" lon="11.059360605257389"><ele>665.0</ele><time>2026-04-25T12:18:57Z</time></trkpt><trkpt lat="45.57933956221203" lon="11.059229350907218"><ele>660.8</ele><time>2026-04-25T12:19:00Z</time></trkpt><trkpt lat="45.57930957611165" lon="11.059088200009946"><ele>656.6</ele><time>2026-04-25T12:19:02Z</time></trkpt><trkpt lat="45.579286790928805" lon="11.058958361324587"><ele>652.4000000000001</ele><time>2026-04-25T12:19:04Z</time></trkpt><trkpt lat="45.57928024216738" lon="11.058835172976318"><ele>648.2</ele><time>2026-04-25T12:19:06Z</time></trkpt><trkpt lat="45.57927793137313" lon="11.058713723965049"><ele>644.0</ele><time>2026-04-25T12:19:08Z</time></trkpt><trkpt lat="45.57927339341684" lon="11.058584416063796"><ele>644.0</ele><time>2026-04-25T12:19:10Z</time></trkpt><trkpt lat="45.579308657491424" lon="11.058475265436181"><ele>644.0</ele><time>2026-04-25T12:19:12Z</time></trkpt><trkpt lat="45.57935443880447" lon="11.058373266339679"><ele>644.0</ele><time>2026-04-25T12:19:14Z</time></trkpt><trkpt lat="45.57939263539841" lon="11.058244563722662"><ele>644.0</ele><time>2026-04-25T12:19:17Z</time></trkpt><trkpt lat="45.579365515467586" lon="11.058108713164"><ele>644.0</ele><time>2026-04-25T12:19:19Z</time></trkpt><trkpt lat="45.579341991358284" lon="11.058020534256697"><ele>644.0</ele><time>2026-04-25T12:19:21Z</time></trkpt><trkpt lat="45.57942114270602" lon="11.058006585093187"><ele>638.8333333333333</ele><time>2026-04-25T12:19:26Z</time></trkpt><trkpt lat="45.57941478894797" lon="11.057898798776943"><ele>633.6666666666666</ele><time>2026-04-25T12:19:29Z</time></trkpt><trkpt lat="45.57948086110448" lon="11.057838389683964"><ele>628.5</ele><time>2026-04-25T12:19:32Z</time></trkpt><trkpt lat="45.57954981395072" lon="11.057788310018196"><ele>623.3333333333334</ele><time>2026-04-25T12:19:34Z</time></trkpt><trkpt lat="45.57961192262886" lon="11.05786704715356"><ele>618.1666666666667</ele><time>2026-04-25T12:19:46Z</time></trkpt><trkpt lat="45.57964570860631" lon="11.058012239478217"><ele>613.0</ele><time>2026-04-25T12:19:48Z</time></trkpt><trkpt lat="45.579658683036726" lon="11.058115636442178"><ele>612.0</ele><time>2026-04-25T12:19:49Z</time></trkpt><trkpt lat="45.57968423145802" lon="11.058282187957772"><ele>611.0</ele><time>2026-04-25T12:19:51Z</time></trkpt><trkpt lat="45.579689816059236" lon="11.0584348712812"><ele>610.0</ele><time>2026-04-25T12:19:53Z</time></trkpt><trkpt lat="45.57973955151678" lon="11.05858145041288"><ele>609.0</ele><time>2026-04-25T12:19:55Z</time></trkpt><trkpt lat="45.579765125172194" lon="11.058669993609799"><ele>608.0</ele><time>2026-04-25T12:19:56Z</time></trkpt><trkpt lat="45.579820264189" lon="11.058813097181055"><ele>609.8333333333333</ele><time>2026-04-25T12:19:58Z</time></trkpt><trkpt lat="45.579942069786036" lon="11.058895918725884"><ele>611.6666666666666</ele><time>2026-04-25T12:20:00Z</time></trkpt><trkpt lat="45.57999484258531" lon="11.058955024831787"><ele>613.5</ele><time>2026-04-25T12:20:01Z</time></trkpt><trkpt lat="45.580052081529445" lon="11.059011078870801"><ele>615.3333333333334</ele><time>2026-04-25T12:20:02Z</time></trkpt><trkpt lat="45.58006389212219" lon="11.059100584237273"><ele>617.1666666666667</ele><time>2026-04-25T12:20:08Z</time></trkpt><trkpt lat="45.580120541901834" lon="11.0591950168683"><ele>619.0</ele><time>2026-04-25T12:20:34Z</time></trkpt><trkpt lat="45.5801594994639" lon="11.059284166176035"><ele>622.1666666666667</ele><time>2026-04-25T12:20:39Z</time></trkpt><trkpt lat="45.580199357603654" lon="11.059370521758627"><ele>625.3333333333334</ele><time>2026-04-25T12:20:44Z</time></trkpt><trkpt lat="45.58026461806428" lon="11.059452364747843"><ele>628.5</ele><time>2026-04-25T12:20:47Z</time></trkpt><trkpt lat="45.58028188566144" lon="11.059548488004747"><ele>631.6666666666666</ele><time>2026-04-25T12:20:50Z</time></trkpt><trkpt lat="45.58030171479568" lon="11.059641300992427"><ele>634.8333333333333</ele><time>2026-04-25T12:20:53Z</time></trkpt><trkpt lat="45.58031803157768" lon="11.059759148043117"><ele>638.0</ele><time>2026-04-25T12:20:55Z</time></trkpt><trkpt lat="45.58034703213466" lon="11.059853293327286"><ele>640.6666666666666</ele><time>2026-04-25T12:20:57Z</time></trkpt><trkpt lat="45.58039424605298" lon="11.059960624435105"><ele>643.3333333333333</ele><time>2026-04-25T12:21:00Z</time></trkpt><trkpt lat="45.58045073001698" lon="11.060078224615244"><ele>646.0</ele><time>2026-04-25T12:21:03Z</time></trkpt><trkpt lat="45.58046463750709" lon="11.060195783583682"><ele>648.6666666666666</ele><time>2026-04-25T12:21:06Z</time></trkpt><trkpt lat="45.58048782634475" lon="11.060295592793803"><ele>651.3333333333334</ele><time>2026-04-25T12:21:09Z</time></trkpt><trkpt lat="45.58052030029572" lon="11.060405750591382"><ele>654.0</ele><time>2026-04-25T12:21:12Z</time></trkpt><trkpt lat="45.580554416858575" lon="11.060512246328141"><ele>654.0</ele><time>2026-04-25T12:21:15Z</time></trkpt><trkpt lat="45.58062541435744" lon="11.060536709829385"><ele>654.0</ele><time>2026-04-25T12:21:18Z</time></trkpt><trkpt lat="45.58067943951676" lon="11.06047140877612"><ele>654.0</ele><time>2026-04-25T12:21:20Z</time></trkpt><trkpt lat="45.58072308727145" lon="11.060392319732072"><ele>654.0</ele><time>2026-04-25T12:21:24Z</time></trkpt><trkpt lat="45.580782946507924" lon="11.060352902649356"><ele>654.0</ele><time>2026-04-25T12:21:27Z</time></trkpt><trkpt lat="45.58083717956281" lon="11.060417533870456"><ele>654.0</ele><time>2026-04-25T12:21:30Z</time></trkpt><trkpt lat="45.58084022994236" lon="11.060509001714715"><ele>654.0</ele><time>2026-04-25T12:21:33Z</time></trkpt><trkpt lat="45.58085098845074" lon="11.060607262732244"><ele>654.0</ele><time>2026-04-25T12:21:35Z</time></trkpt><trkpt lat="45.58086273901037" lon="11.060718741093222"><ele>654.0</ele><time>2026-04-25T12:21:37Z</time></trkpt><trkpt lat="45.580910218031185" lon="11.060809672561138"><ele>654.0</ele><time>2026-04-25T12:21:39Z</time></trkpt><trkpt lat="45.58094910919799" lon="11.060893372125784"><ele>654.0</ele><time>2026-04-25T12:21:41Z</time></trkpt><trkpt lat="45.58102841623556" lon="11.060933633673436"><ele>654.0</ele><time>2026-04-25T12:21:43Z</time></trkpt><trkpt lat="45.58110061965719" lon="11.06099983319383"><ele>654.0</ele><time>2026-04-25T12:21:45Z</time></trkpt><trkpt lat="45.58116191457895" lon="11.061111172385834"><ele>661.4000000000001</ele><time>2026-04-25T12:21:47Z</time></trkpt><trkpt lat="45.58124006776089" lon="11.06128800788313"><ele>668.8</ele><time>2026-04-25T12:21:50Z</time></trkpt><trkpt lat="45.581279812789724" lon="11.061377535009312"><ele>676.2</ele><time>2026-04-25T12:21:52Z</time></trkpt><trkpt lat="45.58132767248248" lon="11.061487524266406"><ele>683.5999999999999</ele><time>2026-04-25T12:21:54Z</time></trkpt><trkpt lat="45.58137788846565" lon="11.061603008042981"><ele>691.0</ele><time>2026-04-25T12:21:56Z</time></trkpt><trkpt lat="45.58142266204793" lon="11.061744696543261"><ele>691.0</ele><time>2026-04-25T12:21:58Z</time></trkpt><trkpt lat="45.58149348405074" lon="11.061866086366676"><ele>691.0</ele><time>2026-04-25T12:22:00Z</time></trkpt><trkpt lat="45.58156053854241" lon="11.061982121454056"><ele>691.0</ele><time>2026-04-25T12:22:02Z</time></trkpt><trkpt lat="45.58161254740203" lon="11.062083483504248"><ele>691.0</ele><time>2026-04-25T12:22:04Z</time></trkpt><trkpt lat="45.58165366452223" lon="11.062217969813757"><ele>691.0</ele><time>2026-04-25T12:22:06Z</time></trkpt><trkpt lat="45.58169948895566" lon="11.062367812878517"><ele>690.1999999999999</ele><time>2026-04-25T12:22:08Z</time></trkpt><trkpt lat="45.581764890668005" lon="11.062482422393549"><ele>689.4</ele><time>2026-04-25T12:22:10Z</time></trkpt><trkpt lat="45.58180136557714" lon="11.062577581127298"><ele>688.6</ele><time>2026-04-25T12:22:13Z</time></trkpt><trkpt lat="45.58184801811642" lon="11.062717936972987"><ele>687.8</ele><time>2026-04-25T12:22:15Z</time></trkpt><trkpt lat="45.581873629442136" lon="11.062833981102074"><ele>687.0</ele><time>2026-04-25T12:22:17Z</time></trkpt><trkpt lat="45.58185676958683" lon="11.062947285671811"><ele>687.0</ele><time>2026-04-25T12:22:19Z</time></trkpt><trkpt lat="45.581823172669665" lon="11.063085736223986"><ele>687.0</ele><time>2026-04-25T12:22:21Z</time></trkpt><trkpt lat="45.58179907919079" lon="11.063176611300577"><ele>687.0</ele><time>2026-04-25T12:22:23Z</time></trkpt><trkpt lat="45.58183609287848" lon="11.063250587202582"><ele>687.0</ele><time>2026-04-25T12:22:25Z</time></trkpt><trkpt lat="45.581894683394665" lon="11.063323873022853"><ele>687.0</ele><time>2026-04-25T12:22:27Z</time></trkpt><trkpt lat="45.58190786223641" lon="11.063418463754582"><ele>687.0</ele><time>2026-04-25T12:22:30Z</time></trkpt><trkpt lat="45.58188517616876" lon="11.06351311744046"><ele>687.5714285714286</ele><time>2026-04-25T12:22:38Z</time></trkpt><trkpt lat="45.58189416041002" lon="11.063602607572399"><ele>688.1428571428571</ele><time>2026-04-25T12:22:40Z</time></trkpt><trkpt lat="45.58189982487054" lon="11.06370755115966"><ele>688.7142857142857</ele><time>2026-04-25T12:22:42Z</time></trkpt><trkpt lat="45.58194309240233" lon="11.063779902887894"><ele>689.2857142857142</ele><time>2026-04-25T12:22:44Z</time></trkpt><trkpt lat="45.58193054628873" lon="11.063883675793672"><ele>689.8571428571429</ele><time>2026-04-25T12:23:23Z</time></trkpt><trkpt lat="45.581873690044326" lon="11.063939111039529"><ele>690.4285714285713</ele><time>2026-04-25T12:23:51Z</time></trkpt><trkpt lat="45.58188380721334" lon="11.064036963109746"><ele>691.0</ele><time>2026-04-25T12:23:57Z</time></trkpt><trkpt lat="45.58189894092853" lon="11.064132632951521"><ele>692.1428571428571</ele><time>2026-04-25T12:24:05Z</time></trkpt><trkpt lat="45.581930912325255" lon="11.064226384330613"><ele>693.2857142857142</ele><time>2026-04-25T12:24:22Z</time></trkpt><trkpt lat="45.58195160796165" lon="11.064313113609385"><ele>694.4285714285713</ele><time>2026-04-25T12:24:58Z</time></trkpt><trkpt lat="45.58195106611522" lon="11.064407254400026"><ele>695.5714285714286</ele><time>2026-04-25T12:25:02Z</time></trkpt><trkpt lat="45.581989293327744" lon="11.064486834405601"><ele>696.7142857142858</ele><time>2026-04-25T12:25:54Z</time></trkpt><trkpt lat="45.58201939629139" lon="11.06456865671735"><ele>697.8571428571428</ele><time>2026-04-25T12:26:08Z</time></trkpt><trkpt lat="45.58205290574049" lon="11.064666481191527"><ele>699.0</ele><time>2026-04-25T12:26:14Z</time></trkpt><trkpt lat="45.58207174229223" lon="11.064768357849575"><ele>701.1428571428571</ele><time>2026-04-25T12:26:18Z</time></trkpt><trkpt lat="45.58203912307376" lon="11.064850492889086"><ele>703.2857142857143</ele><time>2026-04-25T12:26:24Z</time></trkpt><trkpt lat="45.582057865981426" lon="11.064951735664986"><ele>705.4285714285714</ele><time>2026-04-25T12:26:32Z</time></trkpt><trkpt lat="45.5821073938987" lon="11.065027990640527"><ele>707.5714285714286</ele><time>2026-04-25T12:26:35Z</time></trkpt><trkpt lat="45.58214102666646" lon="11.065116134214689"><ele>709.7142857142858</ele><time>2026-04-25T12:26:40Z</time></trkpt><trkpt lat="45.58217115857332" lon="11.065206226011117"><ele>711.8571428571429</ele><time>2026-04-25T12:26:47Z</time></trkpt><trkpt lat="45.58221021942208" lon="11.065291502362028"><ele>714.0</ele><time>2026-04-25T12:27:00Z</time></trkpt><trkpt lat="45.58226547862184" lon="11.065334929737809"><ele>716.2857142857143</ele><time>2026-04-25T12:27:45Z</time></trkpt><trkpt lat="45.58226428554575" lon="11.06544665724778"><ele>718.5714285714286</ele><time>2026-04-25T12:27:51Z</time></trkpt><trkpt lat="45.58230308240507" lon="11.065545469778202"><ele>720.8571428571429</ele><time>2026-04-25T12:27:55Z</time></trkpt><trkpt lat="45.582300815401" lon="11.065646171128641"><ele>723.1428571428571</ele><time>2026-04-25T12:28:00Z</time></trkpt><trkpt lat="45.582332125475176" lon="11.06572534232616"><ele>725.4285714285714</ele><time>2026-04-25T12:28:06Z</time></trkpt><trkpt lat="45.58234559343496" lon="11.065822530748587"><ele>727.7142857142858</ele><time>2026-04-25T12:28:11Z</time></trkpt><trkpt lat="45.58233549793624" lon="11.065926364918747"><ele>730.0</ele><time>2026-04-25T12:28:17Z</time></trkpt><trkpt lat="45.582300116172405" lon="11.066012276314979"><ele>730.0</ele><time>2026-04-25T12:28:21Z</time></trkpt><trkpt lat="45.58224754710032" lon="11.066094948293093"><ele>730.0</ele><time>2026-04-25T12:28:24Z</time></trkpt><trkpt lat="45.582179868617935" lon="11.06617773527123"><ele>730.0</ele><time>2026-04-25T12:28:27Z</time></trkpt><trkpt lat="45.58211196862171" lon="11.06627181498802"><ele>730.0</ele><time>2026-04-25T12:28:30Z</time></trkpt><trkpt lat="45.58204296854982" lon="11.066340890332292"><ele>730.0</ele><time>2026-04-25T12:28:33Z</time></trkpt><trkpt lat="45.58199386956433" lon="11.066425295011674"><ele>730.0</ele><time>2026-04-25T12:28:35Z</time></trkpt><trkpt lat="45.58195840043691" lon="11.06650842378398"><ele>730.0</ele><time>2026-04-25T12:28:37Z</time></trkpt><trkpt lat="45.58190767153874" lon="11.066600530304806"><ele>730.0</ele><time>2026-04-25T12:28:39Z</time></trkpt><trkpt lat="45.581849481544616" lon="11.066683375939348"><ele>730.0</ele><time>2026-04-25T12:28:41Z</time></trkpt><trkpt lat="45.58181137680433" lon="11.066783142592092"><ele>730.0</ele><time>2026-04-25T12:28:43Z</time></trkpt><trkpt lat="45.581797089069205" lon="11.066924982727897"><ele>730.0</ele><time>2026-04-25T12:28:45Z</time></trkpt><trkpt lat="45.581795784836885" lon="11.067061446166338"><ele>730.0</ele><time>2026-04-25T12:28:47Z</time></trkpt><trkpt lat="45.58178506251552" lon="11.067185813859876"><ele>732.6666666666667</ele><time>2026-04-25T12:28:49Z</time></trkpt><trkpt lat="45.58175344430477" lon="11.067269072501125"><ele>735.3333333333334</ele><time>2026-04-25T12:28:50Z</time></trkpt><trkpt lat="45.58172716388887" lon="11.067357861307594"><ele>738.0</ele><time>2026-04-25T12:28:51Z</time></trkpt><trkpt lat="45.58166065090127" lon="11.067512423253575"><ele>740.6666666666666</ele><time>2026-04-25T12:28:53Z</time></trkpt><trkpt lat="45.5816442931464" lon="11.06760830672078"><ele>743.3333333333333</ele><time>2026-04-25T12:28:54Z</time></trkpt><trkpt lat="45.58164044928528" lon="11.067706879657848"><ele>746.0</ele><time>2026-04-25T12:28:55Z</time></trkpt><trkpt lat="45.58167192020186" lon="11.0678138251827"><ele>747.0</ele><time>2026-04-25T12:28:56Z</time></trkpt><trkpt lat="45.58166959108351" lon="11.067912012236876"><ele>748.0</ele><time>2026-04-25T12:28:57Z</time></trkpt><trkpt lat="45.581638098857084" lon="11.068004824147522"><ele>749.0</ele><time>2026-04-25T12:28:58Z</time></trkpt><trkpt lat="45.58161525541366" lon="11.068092858099746"><ele>750.0</ele><time>2026-04-25T12:28:59Z</time></trkpt><trkpt lat="45.58160277490881" lon="11.068194745604686"><ele>751.0</ele><time>2026-04-25T12:29:00Z</time></trkpt><trkpt lat="45.581582950087004" lon="11.068286849157866"><ele>752.0</ele><time>2026-04-25T12:29:01Z</time></trkpt><trkpt lat="45.58159224939178" lon="11.068465003527827"><ele>752.0</ele><time>2026-04-25T12:29:03Z</time></trkpt><trkpt lat="45.58161618279833" lon="11.06856922917029"><ele>752.0</ele><time>2026-04-25T12:29:04Z</time></trkpt><trkpt lat="45.58163719977321" lon="11.068693629106816"><ele>752.0</ele><time>2026-04-25T12:29:05Z</time></trkpt><trkpt lat="45.581655330451184" lon="11.068812736948537"><ele>752.0</ele><time>2026-04-25T12:29:06Z</time></trkpt><trkpt lat="45.58166410326341" lon="11.068922966532252"><ele>752.0</ele><time>2026-04-25T12:29:07Z</time></trkpt><trkpt lat="45.58166584512764" lon="11.069028364539053"><ele>752.0</ele><time>2026-04-25T12:29:08Z</time></trkpt><trkpt lat="45.58161244194157" lon="11.069167774520034"><ele>753.8333333333333</ele><time>2026-04-25T12:29:10Z</time></trkpt><trkpt lat="45.58151814699676" lon="11.069232881140085"><ele>755.6666666666666</ele><time>2026-04-25T12:29:12Z</time></trkpt><trkpt lat="45.58145122436639" lon="11.069265251759756"><ele>757.5</ele><time>2026-04-25T12:29:13Z</time></trkpt><trkpt lat="45.58139079220262" lon="11.069305410474051"><ele>759.3333333333334</ele><time>2026-04-25T12:29:14Z</time></trkpt><trkpt lat="45.58132904182409" lon="11.069342469145766"><ele>761.1666666666667</ele><time>2026-04-25T12:29:15Z</time></trkpt><trkpt lat="45.58127288981778" lon="11.069393046624981"><ele>763.0</ele><time>2026-04-25T12:29:16Z</time></trkpt><trkpt lat="45.581215179191666" lon="11.069466042405784"><ele>762.3333333333334</ele><time>2026-04-25T12:29:17Z</time></trkpt><trkpt lat="45.58116659009915" lon="11.069548093636875"><ele>761.6666666666667</ele><time>2026-04-25T12:29:18Z</time></trkpt><trkpt lat="45.581127640877725" lon="11.069625663397634"><ele>761.0</ele><time>2026-04-25T12:29:19Z</time></trkpt><trkpt lat="45.58106516027194" lon="11.069791522672443"><ele>760.3333333333334</ele><time>2026-04-25T12:29:21Z</time></trkpt><trkpt lat="45.58104397490647" lon="11.069876599511623"><ele>759.6666666666666</ele><time>2026-04-25T12:29:22Z</time></trkpt><trkpt lat="45.58102681698516" lon="11.069971910073257"><ele>759.0</ele><time>2026-04-25T12:29:23Z</time></trkpt><trkpt lat="45.58099341575333" lon="11.070073421052527"><ele>759.0</ele><time>2026-04-25T12:29:24Z</time></trkpt><trkpt lat="45.58097304343888" lon="11.070167937165134"><ele>759.0</ele><time>2026-04-25T12:29:25Z</time></trkpt><trkpt lat="45.580955650150166" lon="11.070258247131507"><ele>759.0</ele><time>2026-04-25T12:29:26Z</time></trkpt><trkpt lat="45.58094140082011" lon="11.070383045553857"><ele>759.0</ele><time>2026-04-25T12:29:28Z</time></trkpt><trkpt lat="45.58091820370176" lon="11.070477713108735"><ele>759.0</ele><time>2026-04-25T12:29:30Z</time></trkpt><trkpt lat="45.58085109003044" lon="11.070615865842429"><ele>759.0</ele><time>2026-04-25T12:29:32Z</time></trkpt><trkpt lat="45.58081983455834" lon="11.07069614787223"><ele>761.3333333333334</ele><time>2026-04-25T12:29:33Z</time></trkpt><trkpt lat="45.58080574719436" lon="11.070785108138429"><ele>763.6666666666667</ele><time>2026-04-25T12:29:34Z</time></trkpt><trkpt lat="45.58078300162948" lon="11.070875076647232"><ele>766.0</ele><time>2026-04-25T12:29:35Z</time></trkpt><trkpt lat="45.580763054026804" lon="11.070976132418172"><ele>768.3333333333334</ele><time>2026-04-25T12:29:36Z</time></trkpt><trkpt lat="45.580785299724454" lon="11.071146825842893"><ele>770.6666666666667</ele><time>2026-04-25T12:29:38Z</time></trkpt><trkpt lat="45.580827809443264" lon="11.071283410134233"><ele>773.0</ele><time>2026-04-25T12:29:40Z</time></trkpt><trkpt lat="45.58086879716966" lon="11.071394977118175"><ele>773.0</ele><time>2026-04-25T12:29:42Z</time></trkpt><trkpt lat="45.58079349296253" lon="11.071464940773994"><ele>773.0</ele><time>2026-04-25T12:29:45Z</time></trkpt><trkpt lat="45.58068190700813" lon="11.071438747574264"><ele>773.0</ele><time>2026-04-25T12:29:47Z</time></trkpt><trkpt lat="45.58059720063667" lon="11.071476951650087"><ele>773.0</ele><time>2026-04-25T12:29:49Z</time></trkpt><trkpt lat="45.580537466381315" lon="11.071613871908514"><ele>773.0</ele><time>2026-04-25T12:29:51Z</time></trkpt><trkpt lat="45.58048243422435" lon="11.071679183963294"><ele>774.8333333333334</ele><time>2026-04-25T12:29:52Z</time></trkpt><trkpt lat="45.58044691973534" lon="11.071759503650643"><ele>776.6666666666667</ele><time>2026-04-25T12:29:53Z</time></trkpt><trkpt lat="45.5803888398199" lon="11.071935855375562"><ele>778.5</ele><time>2026-04-25T12:29:55Z</time></trkpt><trkpt lat="45.5803711096896" lon="11.072026241248007"><ele>780.3333333333333</ele><time>2026-04-25T12:29:56Z</time></trkpt><trkpt lat="45.58034231359336" lon="11.072111767362916"><ele>782.1666666666666</ele><time>2026-04-25T12:29:57Z</time></trkpt><trkpt lat="45.58030128212448" lon="11.072181172924893"><ele>784.0</ele><time>2026-04-25T12:29:58Z</time></trkpt><trkpt lat="45.58024929084945" lon="11.072237955939277"><ele>784.0</ele><time>2026-04-25T12:29:59Z</time></trkpt><trkpt lat="45.58015094570687" lon="11.072330024009455"><ele>784.0</ele><time>2026-04-25T12:30:01Z</time></trkpt><trkpt lat="45.58008726114356" lon="11.072340953296408"><ele>784.0</ele><time>2026-04-25T12:30:02Z</time></trkpt><trkpt lat="45.58000288120265" lon="11.072342629644409"><ele>784.0</ele><time>2026-04-25T12:30:04Z</time></trkpt><trkpt lat="45.57993498619952" lon="11.07222757148779"><ele>784.0</ele><time>2026-04-25T12:30:07Z</time></trkpt><trkpt lat="45.57986000780121" lon="11.072110575913454"><ele>784.0</ele><time>2026-04-25T12:30:09Z</time></trkpt><trkpt lat="45.57980983152726" lon="11.071980912997164"><ele>784.0</ele><time>2026-04-25T12:30:11Z</time></trkpt><trkpt lat="45.57977142193145" lon="11.071852849786248"><ele>784.0</ele><time>2026-04-25T12:30:13Z</time></trkpt><trkpt lat="45.57969622925163" lon="11.071726064712026"><ele>784.0</ele><time>2026-04-25T12:30:15Z</time></trkpt><trkpt lat="45.579608076034994" lon="11.071595701765887"><ele>784.0</ele><time>2026-04-25T12:30:17Z</time></trkpt><trkpt lat="45.57956169403897" lon="11.07153423948094"><ele>784.9999999999999</ele><time>2026-04-25T12:30:18Z</time></trkpt><trkpt lat="45.579509404945895" lon="11.071465225321214"><ele>786.0</ele><time>2026-04-25T12:30:19Z</time></trkpt><trkpt lat="45.57945364354328" lon="11.071407803789647"><ele>787.0</ele><time>2026-04-25T12:30:20Z</time></trkpt><trkpt lat="45.57939399853128" lon="11.071352381913599"><ele>788.0</ele><time>2026-04-25T12:30:21Z</time></trkpt><trkpt lat="45.579322469142824" lon="11.071306518639412"><ele>788.9999999999999</ele><time>2026-04-25T12:30:22Z</time></trkpt><trkpt lat="45.579236795797" lon="11.07126852369784"><ele>790.0</ele><time>2026-04-25T12:30:23Z</time></trkpt><trkpt lat="45.579147606701476" lon="11.071213995974977"><ele>789.9999999999999</ele><time>2026-04-25T12:30:24Z</time></trkpt><trkpt lat="45.5790739231897" lon="11.071168686433742"><ele>790.0</ele><time>2026-04-25T12:30:25Z</time></trkpt><trkpt lat="45.57901511894657" lon="11.07111629077831"><ele>790.0</ele><time>2026-04-25T12:30:26Z</time></trkpt><trkpt lat="45.57896266346734" lon="11.071052532390604"><ele>790.0</ele><time>2026-04-25T12:30:27Z</time></trkpt><trkpt lat="45.57890161744207" lon="11.070998471911581"><ele>789.9999999999999</ele><time>2026-04-25T12:30:28Z</time></trkpt><trkpt lat="45.57880527574728" lon="11.070907555173273"><ele>790.0</ele><time>2026-04-25T12:30:30Z</time></trkpt><trkpt lat="45.57869860407988" lon="11.070830216080413"><ele>790.8333333333333</ele><time>2026-04-25T12:30:32Z</time></trkpt><trkpt lat="45.578639915996995" lon="11.070790052340309"><ele>791.6666666666666</ele><time>2026-04-25T12:30:33Z</time></trkpt><trkpt lat="45.57851952966321" lon="11.070740051492631"><ele>792.5</ele><time>2026-04-25T12:30:35Z</time></trkpt><trkpt lat="45.57845559774817" lon="11.070725658004909"><ele>793.3333333333333</ele><time>2026-04-25T12:30:36Z</time></trkpt><trkpt lat="45.578332970558826" lon="11.07071609214622"><ele>794.1666666666666</ele><time>2026-04-25T12:30:38Z</time></trkpt><trkpt lat="45.57826654792803" lon="11.070719837944635"><ele>795.0</ele><time>2026-04-25T12:30:39Z</time></trkpt><trkpt lat="45.57820248558829" lon="11.070732874353599"><ele>795.0</ele><time>2026-04-25T12:30:40Z</time></trkpt><trkpt lat="45.5781358381708" lon="11.070753468624943"><ele>795.0</ele><time>2026-04-25T12:30:41Z</time></trkpt><trkpt lat="45.578067306108956" lon="11.07077695739278"><ele>795.0</ele><time>2026-04-25T12:30:42Z</time></trkpt><trkpt lat="45.577998726113684" lon="11.070811141401684"><ele>795.0</ele><time>2026-04-25T12:30:43Z</time></trkpt><trkpt lat="45.57793934640623" lon="11.070853177027336"><ele>795.0</ele><time>2026-04-25T12:30:44Z</time></trkpt><trkpt lat="45.577848708202865" lon="11.070982844461415"><ele>795.0</ele><time>2026-04-25T12:30:46Z</time></trkpt><trkpt lat="45.57781736541377" lon="11.071089042806861"><ele>796.4</ele><time>2026-04-25T12:30:47Z</time></trkpt><trkpt lat="45.577800549112666" lon="11.071198549415355"><ele>797.8</ele><time>2026-04-25T12:30:48Z</time></trkpt><trkpt lat="45.57778648437619" lon="11.071325100711773"><ele>799.2</ele><time>2026-04-25T12:30:49Z</time></trkpt><trkpt lat="45.57776965501216" lon="11.071468379317977"><ele>800.6</ele><time>2026-04-25T12:30:50Z</time></trkpt><trkpt lat="45.577752188498515" lon="11.071630089082177"><ele>802.0</ele><time>2026-04-25T12:30:51Z</time></trkpt><trkpt lat="45.57774461762563" lon="11.071768271214284"><ele>802.6</ele><time>2026-04-25T12:30:52Z</time></trkpt><trkpt lat="45.57772946065695" lon="11.071920556333396"><ele>803.2</ele><time>2026-04-25T12:30:53Z</time></trkpt><trkpt lat="45.57772300560219" lon="11.072059048711608"><ele>803.8</ele><time>2026-04-25T12:30:54Z</time></trkpt><trkpt lat="45.57771852775716" lon="11.072200718932754"><ele>804.4</ele><time>2026-04-25T12:30:55Z</time></trkpt><trkpt lat="45.57770643806792" lon="11.072333120706611"><ele>805.0</ele><time>2026-04-25T12:30:56Z</time></trkpt><trkpt lat="45.5776893427459" lon="11.072442427565468"><ele>806.4</ele><time>2026-04-25T12:30:57Z</time></trkpt><trkpt lat="45.57765540643657" lon="11.072546896939084"><ele>807.8</ele><time>2026-04-25T12:30:58Z</time></trkpt><trkpt lat="45.57761672698534" lon="11.072656070899372"><ele>809.2</ele><time>2026-04-25T12:30:59Z</time></trkpt><trkpt lat="45.577572829710384" lon="11.072764831391698"><ele>810.6</ele><time>2026-04-25T12:31:00Z</time></trkpt><trkpt lat="45.577525578377454" lon="11.07288936007992"><ele>812.0</ele><time>2026-04-25T12:31:01Z</time></trkpt><trkpt lat="45.57748796005272" lon="11.07305336108199"><ele>812.0000000000001</ele><time>2026-04-25T12:31:02Z</time></trkpt><trkpt lat="45.577452853957986" lon="11.073187638089642"><ele>812.0</ele><time>2026-04-25T12:31:03Z</time></trkpt><trkpt lat="45.57742249965191" lon="11.073300612136958"><ele>812.0</ele><time>2026-04-25T12:31:04Z</time></trkpt><trkpt lat="45.57738826854514" lon="11.073392234274154"><ele>812.0</ele><time>2026-04-25T12:31:05Z</time></trkpt><trkpt lat="45.577347337068055" lon="11.073473727223055"><ele>812.0000000000001</ele><time>2026-04-25T12:31:06Z</time></trkpt><trkpt lat="45.57728961054352" lon="11.073549195157987"><ele>812.0</ele><time>2026-04-25T12:31:07Z</time></trkpt><trkpt lat="45.577222981007665" lon="11.073603599042613"><ele>811.1666666666667</ele><time>2026-04-25T12:31:08Z</time></trkpt><trkpt lat="45.57714713738447" lon="11.073631636175966"><ele>810.3333333333334</ele><time>2026-04-25T12:31:09Z</time></trkpt><trkpt lat="45.577075349713276" lon="11.073617513731923"><ele>809.5</ele><time>2026-04-25T12:31:10Z</time></trkpt><trkpt lat="45.577003417133916" lon="11.073604905974824"><ele>808.6666666666667</ele><time>2026-04-25T12:31:11Z</time></trkpt><trkpt lat="45.576929827474125" lon="11.073615692087374"><ele>807.8333333333334</ele><time>2026-04-25T12:31:12Z</time></trkpt><trkpt lat="45.57684324395737" lon="11.073650072788855"><ele>807.0</ele><time>2026-04-25T12:31:13Z</time></trkpt><trkpt lat="45.57676346453282" lon="11.07366938460631"><ele>807.0000000000001</ele><time>2026-04-25T12:31:14Z</time></trkpt><trkpt lat="45.57669386624394" lon="11.07368367965435"><ele>807.0</ele><time>2026-04-25T12:31:15Z</time></trkpt><trkpt lat="45.57662681037929" lon="11.073711175407086"><ele>807.0</ele><time>2026-04-25T12:31:16Z</time></trkpt><trkpt lat="45.57656248251744" lon="11.073742630543974"><ele>807.0</ele><time>2026-04-25T12:31:17Z</time></trkpt><trkpt lat="45.57649890302567" lon="11.073769291946327"><ele>807.0</ele><time>2026-04-25T12:31:18Z</time></trkpt><trkpt lat="45.576435473255756" lon="11.07381293004736"><ele>807.0000000000001</ele><time>2026-04-25T12:31:19Z</time></trkpt><trkpt lat="45.576368584906106" lon="11.073868277549261"><ele>807.0</ele><time>2026-04-25T12:31:20Z</time></trkpt><trkpt lat="45.57629724404523" lon="11.073924235256607"><ele>807.0</ele><time>2026-04-25T12:31:21Z</time></trkpt><trkpt lat="45.57623021491537" lon="11.073987372901954"><ele>807.0</ele><time>2026-04-25T12:31:22Z</time></trkpt><trkpt lat="45.576164488479925" lon="11.074068997018522"><ele>807.0</ele><time>2026-04-25T12:31:23Z</time></trkpt><trkpt lat="45.576090683146774" lon="11.074110440893964"><ele>807.0</ele><time>2026-04-25T12:31:24Z</time></trkpt><trkpt lat="45.576021675309406" lon="11.074151300674526"><ele>807.0</ele><time>2026-04-25T12:31:25Z</time></trkpt><trkpt lat="45.57596290269741" lon="11.074207476614637"><ele>807.0</ele><time>2026-04-25T12:31:26Z</time></trkpt><trkpt lat="45.57590704182611" lon="11.074256163195017"><ele>808.6</ele><time>2026-04-25T12:31:27Z</time></trkpt><trkpt lat="45.57585222162855" lon="11.074304936995"><ele>810.2</ele><time>2026-04-25T12:31:28Z</time></trkpt><trkpt lat="45.57573773201169" lon="11.074354756376922"><ele>811.8</ele><time>2026-04-25T12:31:30Z</time></trkpt><trkpt lat="45.57567103585576" lon="11.074511482751022"><ele>813.4</ele><time>2026-04-25T12:31:31Z</time></trkpt><trkpt lat="45.57557916934073" lon="11.074529613278672"><ele>815.0</ele><time>2026-04-25T12:31:32Z</time></trkpt><trkpt lat="45.57546998745405" lon="11.07426837218325"><ele>815.0</ele><time>2026-04-25T12:31:33Z</time></trkpt><trkpt lat="45.575379603142146" lon="11.074215972971748"><ele>815.0</ele><time>2026-04-25T12:31:34Z</time></trkpt><trkpt lat="45.5752702214049" lon="11.074200806485537"><ele>815.0</ele><time>2026-04-25T12:31:35Z</time></trkpt><trkpt lat="45.57515789253885" lon="11.074175776200647"><ele>815.0</ele><time>2026-04-25T12:31:36Z</time></trkpt><trkpt lat="45.57504912996854" lon="11.074153431466305"><ele>815.0</ele><time>2026-04-25T12:31:37Z</time></trkpt><trkpt lat="45.57492400432049" lon="11.074135310037624"><ele>813.75</ele><time>2026-04-25T12:31:38Z</time></trkpt><trkpt lat="45.574791586045585" lon="11.074126198498762"><ele>812.5</ele><time>2026-04-25T12:31:39Z</time></trkpt><trkpt lat="45.574646336899264" lon="11.074111873336854"><ele>811.25</ele><time>2026-04-25T12:31:40Z</time></trkpt><trkpt lat="45.574490568388896" lon="11.07409450551977"><ele>810.0</ele><time>2026-04-25T12:31:41Z</time></trkpt><trkpt lat="45.57432963873231" lon="11.07408760814735"><ele>805.0</ele><time>2026-04-25T12:31:42Z</time></trkpt><trkpt lat="45.57415345683528" lon="11.074083941049228"><ele>800.0</ele><time>2026-04-25T12:31:43Z</time></trkpt><trkpt lat="45.57398889957037" lon="11.074088284266276"><ele>795.0</ele><time>2026-04-25T12:31:44Z</time></trkpt><trkpt lat="45.57383811624673" lon="11.074063951338143"><ele>795.0</ele><time>2026-04-25T12:31:45Z</time></trkpt><trkpt lat="45.57369693893515" lon="11.074085569918822"><ele>795.0</ele><time>2026-04-25T12:31:46Z</time></trkpt><trkpt lat="45.57355363048635" lon="11.074071935156905"><ele>795.0</ele><time>2026-04-25T12:31:47Z</time></trkpt><trkpt lat="45.57340421534537" lon="11.07406703900429"><ele>795.0</ele><time>2026-04-25T12:31:48Z</time></trkpt><trkpt lat="45.57324131365071" lon="11.074078789694827"><ele>795.0</ele><time>2026-04-25T12:31:49Z</time></trkpt><trkpt lat="45.57307872410298" lon="11.074102615165025"><ele>795.0</ele><time>2026-04-25T12:31:50Z</time></trkpt><trkpt lat="45.57291758353025" lon="11.074136099848445"><ele>795.0</ele><time>2026-04-25T12:31:51Z</time></trkpt><trkpt lat="45.572761936377574" lon="11.074142497859166"><ele>794.6666666666667</ele><time>2026-04-25T12:31:52Z</time></trkpt><trkpt lat="45.57259890723457" lon="11.074173984943926"><ele>794.3333333333334</ele><time>2026-04-25T12:31:53Z</time></trkpt><trkpt lat="45.57243076001773" lon="11.074223007626747"><ele>794.0</ele><time>2026-04-25T12:31:54Z</time></trkpt><trkpt lat="45.5722721211813" lon="11.074247822777213"><ele>794.0</ele><time>2026-04-25T12:31:55Z</time></trkpt><trkpt lat="45.57212732771508" lon="11.074281872465273"><ele>794.0</ele><time>2026-04-25T12:31:56Z</time></trkpt><trkpt lat="45.57198793367086" lon="11.074305745563079"><ele>794.0</ele><time>2026-04-25T12:31:57Z</time></trkpt><trkpt lat="45.57185078516757" lon="11.074317836831394"><ele>794.0</ele><time>2026-04-25T12:31:58Z</time></trkpt><trkpt lat="45.57172336889129" lon="11.074332599702156"><ele>793.0</ele><time>2026-04-25T12:31:59Z</time></trkpt><trkpt lat="45.5716050191756" lon="11.074349756624521"><ele>792.0</ele><time>2026-04-25T12:32:00Z</time></trkpt><trkpt lat="45.571489369034076" lon="11.074364874049756"><ele>791.0</ele><time>2026-04-25T12:32:01Z</time></trkpt><trkpt lat="45.571381700664446" lon="11.074371675711344"><ele>790.0</ele><time>2026-04-25T12:32:02Z</time></trkpt><trkpt lat="45.57127228999565" lon="11.074366006173602"><ele>788.0</ele><time>2026-04-25T12:32:03Z</time></trkpt><trkpt lat="45.571165929809844" lon="11.074366122449032"><ele>786.0</ele><time>2026-04-25T12:32:04Z</time></trkpt><trkpt lat="45.571059414398654" lon="11.07436591990287"><ele>784.0</ele><time>2026-04-25T12:32:05Z</time></trkpt><trkpt lat="45.57095265059062" lon="11.074359727234777"><ele>782.0</ele><time>2026-04-25T12:32:06Z</time></trkpt><trkpt lat="45.570849544667375" lon="11.074361520816668"><ele>780.0</ele><time>2026-04-25T12:32:07Z</time></trkpt><trkpt lat="45.57075723450686" lon="11.07438814689313"><ele>780.0</ele><time>2026-04-25T12:32:08Z</time></trkpt><trkpt lat="45.57067663736451" lon="11.07445109887433"><ele>780.0</ele><time>2026-04-25T12:32:09Z</time></trkpt><trkpt lat="45.57061379412213" lon="11.074563278096178"><ele>780.0</ele><time>2026-04-25T12:32:10Z</time></trkpt><trkpt lat="45.57057175167731" lon="11.07467718830851"><ele>780.0</ele><time>2026-04-25T12:32:11Z</time></trkpt><trkpt lat="45.57051355660543" lon="11.074755790922168"><ele>780.0</ele><time>2026-04-25T12:32:12Z</time></trkpt><trkpt lat="45.570438039808565" lon="11.074776711355332"><ele>780.0</ele><time>2026-04-25T12:32:13Z</time></trkpt><trkpt lat="45.57037005975099" lon="11.074661335743029"><ele>778.2</ele><time>2026-04-25T12:32:14Z</time></trkpt><trkpt lat="45.57031367838101" lon="11.07457517932586"><ele>776.4</ele><time>2026-04-25T12:32:15Z</time></trkpt><trkpt lat="45.570276536772205" lon="11.074487810398722"><ele>774.5999999999999</ele><time>2026-04-25T12:32:16Z</time></trkpt><trkpt lat="45.57022114895302" lon="11.074344420091405"><ele>772.8</ele><time>2026-04-25T12:32:18Z</time></trkpt><trkpt lat="45.57020041597013" lon="11.074206264592098"><ele>771.0</ele><time>2026-04-25T12:32:20Z</time></trkpt><trkpt lat="45.57016001324124" lon="11.074025071009366"><ele>768.5</ele><time>2026-04-25T12:32:22Z</time></trkpt><trkpt lat="45.57013840339585" lon="11.073913968440094"><ele>766.0</ele><time>2026-04-25T12:32:24Z</time></trkpt><trkpt lat="45.56962945495893" lon="11.07400753062521"><ele>766.0</ele><time>2026-04-25T12:32:26Z</time></trkpt><trkpt lat="45.56952771369584" lon="11.074059766202389"><ele>766.0</ele><time>2026-04-25T12:32:28Z</time></trkpt><trkpt lat="45.569470396945405" lon="11.074112140031504"><ele>766.0</ele><time>2026-04-25T12:32:29Z</time></trkpt><trkpt lat="45.56942250859021" lon="11.074188536427927"><ele>766.0</ele><time>2026-04-25T12:32:30Z</time></trkpt><trkpt lat="45.56938764871174" lon="11.07429046411912"><ele>766.0</ele><time>2026-04-25T12:32:31Z</time></trkpt><trkpt lat="45.56938463841029" lon="11.074405698067435"><ele>766.0</ele><time>2026-04-25T12:32:32Z</time></trkpt><trkpt lat="45.56939795550961" lon="11.074525599007575"><ele>765.0</ele><time>2026-04-25T12:32:33Z</time></trkpt><trkpt lat="45.56942240493317" lon="11.074633941525832"><ele>764.0</ele><time>2026-04-25T12:32:34Z</time></trkpt><trkpt lat="45.56943426881206" lon="11.074728660639606"><ele>763.0</ele><time>2026-04-25T12:32:35Z</time></trkpt><trkpt lat="45.569461969274876" lon="11.07487598449943"><ele>762.0</ele><time>2026-04-25T12:32:37Z</time></trkpt><trkpt lat="45.56948757700558" lon="11.075033188033016"><ele>761.0</ele><time>2026-04-25T12:32:39Z</time></trkpt><trkpt lat="45.56949176953872" lon="11.075123321939609"><ele>760.0</ele><time>2026-04-25T12:32:40Z</time></trkpt><trkpt lat="45.56951326379636" lon="11.075308817699241"><ele>759.5</ele><time>2026-04-25T12:32:42Z</time></trkpt><trkpt lat="45.5695216379801" lon="11.07540701542857"><ele>759.0</ele><time>2026-04-25T12:32:43Z</time></trkpt><trkpt lat="45.569536875619264" lon="11.075518767929639"><ele>758.5</ele><time>2026-04-25T12:32:44Z</time></trkpt><trkpt lat="45.56955003613234" lon="11.075624381396949"><ele>758.0</ele><time>2026-04-25T12:32:45Z</time></trkpt><trkpt lat="45.56956704638181" lon="11.075787646377304"><ele>757.5</ele><time>2026-04-25T12:32:47Z</time></trkpt><trkpt lat="45.569563886559955" lon="11.075898934295115"><ele>757.0</ele><time>2026-04-25T12:32:49Z</time></trkpt><trkpt lat="45.56946546660717" lon="11.07598058075831"><ele>754.6</ele><time>2026-04-25T12:32:52Z</time></trkpt><trkpt lat="45.56945804509775" lon="11.076147091942037"><ele>752.2</ele><time>2026-04-25T12:32:53Z</time></trkpt><trkpt lat="45.56938475166986" lon="11.076189412633974"><ele>749.8</ele><time>2026-04-25T12:32:54Z</time></trkpt><trkpt lat="45.56929940558468" lon="11.076251195952793"><ele>747.4</ele><time>2026-04-25T12:32:55Z</time></trkpt><trkpt lat="45.569204453634654" lon="11.076334071402377"><ele>745.0</ele><time>2026-04-25T12:32:56Z</time></trkpt><trkpt lat="45.56909272594345" lon="11.076438607397641"><ele>745.0</ele><time>2026-04-25T12:32:57Z</time></trkpt><trkpt lat="45.56896723487984" lon="11.076560792403809"><ele>745.0</ele><time>2026-04-25T12:32:58Z</time></trkpt><trkpt lat="45.56882670541913" lon="11.076697619554858"><ele>745.0</ele><time>2026-04-25T12:32:59Z</time></trkpt><trkpt lat="45.56869210604045" lon="11.076828672899559"><ele>741.5</ele><time>2026-04-25T12:33:00Z</time></trkpt><trkpt lat="45.56857078134339" lon="11.076946801196689"><ele>738.0</ele><time>2026-04-25T12:33:01Z</time></trkpt><trkpt lat="45.568450719078314" lon="11.077040923946313"><ele>734.5</ele><time>2026-04-25T12:33:02Z</time></trkpt><trkpt lat="45.568351065177524" lon="11.077108858552764"><ele>731.0</ele><time>2026-04-25T12:33:03Z</time></trkpt><trkpt lat="45.568271525579725" lon="11.077152933364808"><ele>727.0</ele><time>2026-04-25T12:33:04Z</time></trkpt><trkpt lat="45.567865828146815" lon="11.076427951121598"><ele>725.5</ele><time>2026-04-25T12:33:05Z</time></trkpt><trkpt lat="45.56778514194714" lon="11.076299872471301"><ele>724.0</ele><time>2026-04-25T12:33:07Z</time></trkpt><trkpt lat="45.56777041535299" lon="11.07620915997236"><ele>722.5</ele><time>2026-04-25T12:33:08Z</time></trkpt><trkpt lat="45.5677256084549" lon="11.076126386031124"><ele>721.0</ele><time>2026-04-25T12:33:10Z</time></trkpt><trkpt lat="45.567770764525974" lon="11.076055378486336"><ele>719.5</ele><time>2026-04-25T12:33:13Z</time></trkpt><trkpt lat="45.56777481463257" lon="11.076152576957318"><ele>718.0</ele><time>2026-04-25T12:34:06Z</time></trkpt><trkpt lat="45.56784450256777" lon="11.076184061218244"><ele>718.0</ele><time>2026-04-25T12:34:08Z</time></trkpt><trkpt lat="45.56791215639057" lon="11.07615633267771"><ele>727.0</ele><time>2026-04-25T12:34:10Z</time></trkpt><trkpt lat="45.5679739069296" lon="11.076085193321752"><ele>727.0</ele><time>2026-04-25T12:34:12Z</time></trkpt><trkpt lat="45.568031274760926" lon="11.076042919831815"><ele>727.0</ele><time>2026-04-25T12:34:15Z</time></trkpt></trkseg></trk></gpx>